sensor_id;sensor_type;location;lat;lon;timestamp;P1;durP1;ratioP1;P2;durP2;ratioP2
42146;SDS011;27815;43.410;11.852;2023-05-31T04:27:50;6.10;;;3.75;;
42146;SDS011;27815;43.410;11.852;2023-05-31T04:37:07;6.85;;;3.75;;
42146;SDS011;27815;43.410;11.852;2023-05-31T05:14:56;5.65;;;3.70;;
42146;SDS011;27815;43.410;11.852;2023-05-31T05:19:00;6.10;;;3.75;;
42146;SDS011;27815;43.410;11.852;2023-05-31T05:23:06;8.50;;;4.85;;
42146;SDS011;27815;43.410;11.852;2023-05-31T05:27:13;7.55;;;4.28;;
42146;SDS011;27815;43.410;11.852;2023-05-31T05:31:18;6.40;;;4.53;;
42146;SDS011;27815;43.410;11.852;2023-05-31T05:35:22;7.55;;;4.97;;
42146;SDS011;27815;43.410;11.852;2023-05-31T05:39:25;6.43;;;4.80;;
42146;SDS011;27815;43.410;11.852;2023-05-31T05:43:28;6.30;;;5.68;;
42146;SDS011;27815;43.410;11.852;2023-05-31T05:47:42;8.63;;;6.53;;
42146;SDS011;27815;43.410;11.852;2023-05-31T05:51:50;8.80;;;7.90;;
42146;SDS011;27815;43.410;11.852;2023-05-31T05:55:56;8.33;;;7.53;;
42146;SDS011;27815;43.410;11.852;2023-05-31T06:00:05;8.30;;;7.60;;
42146;SDS011;27815;43.410;11.852;2023-05-31T06:04:14;9.23;;;8.35;;
42146;SDS011;27815;43.410;11.852;2023-05-31T06:08:22;9.05;;;8.18;;
42146;SDS011;27815;43.410;11.852;2023-05-31T06:12:26;9.98;;;8.98;;
42146;SDS011;27815;43.410;11.852;2023-05-31T06:16:30;9.75;;;8.85;;
42146;SDS011;27815;43.410;11.852;2023-05-31T06:20:39;10.90;;;9.90;;
42146;SDS011;27815;43.410;11.852;2023-05-31T06:24:46;9.60;;;8.70;;
42146;SDS011;27815;43.410;11.852;2023-05-31T06:28:49;8.60;;;7.90;;
42146;SDS011;27815;43.410;11.852;2023-05-31T06:33:33;9.35;;;8.18;;
42146;SDS011;27815;43.410;11.852;2023-05-31T06:37:36;9.73;;;7.93;;
42146;SDS011;27815;43.410;11.852;2023-05-31T06:41:40;11.35;;;9.90;;
42146;SDS011;27815;43.410;11.852;2023-05-31T06:46:22;9.15;;;8.25;;
42146;SDS011;27815;43.410;11.852;2023-05-31T06:50:43;9.23;;;8.13;;
42146;SDS011;27815;43.410;11.852;2023-05-31T06:55:07;10.68;;;8.82;;
42146;SDS011;27815;43.410;11.852;2023-05-31T06:59:12;10.38;;;8.02;;
42146;SDS011;27815;43.410;11.852;2023-05-31T07:03:16;9.95;;;8.88;;
42146;SDS011;27815;43.410;11.852;2023-05-31T07:07:19;9.30;;;7.50;;
42146;SDS011;27815;43.410;11.852;2023-05-31T07:11:22;9.45;;;7.75;;
42146;SDS011;27815;43.410;11.852;2023-05-31T07:15:25;7.38;;;6.63;;
42146;SDS011;27815;43.410;11.852;2023-05-31T07:19:30;7.00;;;6.30;;
42146;SDS011;27815;43.410;11.852;2023-05-31T07:23:33;7.13;;;6.10;;
42146;SDS011;27815;43.410;11.852;2023-05-31T07:27:36;7.72;;;5.55;;
42146;SDS011;27815;43.410;11.852;2023-05-31T07:31:39;7.20;;;5.57;;
42146;SDS011;27815;43.410;11.852;2023-05-31T07:35:44;7.70;;;4.97;;
42146;SDS011;27815;43.410;11.852;2023-05-31T07:39:56;6.55;;;4.88;;
42146;SDS011;27815;43.410;11.852;2023-05-31T07:43:59;6.63;;;5.25;;
42146;SDS011;27815;43.410;11.852;2023-05-31T07:48:03;7.20;;;6.07;;
42146;SDS011;27815;43.410;11.852;2023-05-31T07:52:06;6.30;;;5.47;;
42146;SDS011;27815;43.410;11.852;2023-05-31T07:56:10;6.97;;;4.95;;
42146;SDS011;27815;43.410;11.852;2023-05-31T08:00:13;6.93;;;5.10;;
42146;SDS011;27815;43.410;11.852;2023-05-31T08:04:17;7.45;;;5.47;;
42146;SDS011;27815;43.410;11.852;2023-05-31T08:08:20;7.22;;;5.95;;
42146;SDS011;27815;43.410;11.852;2023-05-31T08:12:23;7.75;;;5.95;;
42146;SDS011;27815;43.410;11.852;2023-05-31T08:16:32;8.15;;;6.40;;
42146;SDS011;27815;43.410;11.852;2023-05-31T08:20:36;7.10;;;6.10;;
42146;SDS011;27815;43.410;11.852;2023-05-31T08:24:39;6.60;;;5.90;;
42146;SDS011;27815;43.410;11.852;2023-05-31T08:28:42;7.90;;;6.18;;
42146;SDS011;27815;43.410;11.852;2023-05-31T08:32:45;8.38;;;6.30;;
42146;SDS011;27815;43.410;11.852;2023-05-31T08:36:48;6.45;;;5.10;;
42146;SDS011;27815;43.410;11.852;2023-05-31T08:40:51;6.32;;;4.97;;
42146;SDS011;27815;43.410;11.852;2023-05-31T08:44:55;7.10;;;4.78;;
42146;SDS011;27815;43.410;11.852;2023-05-31T08:49:10;5.20;;;4.03;;
42146;SDS011;27815;43.410;11.852;2023-05-31T08:53:15;6.30;;;4.28;;
42146;SDS011;27815;43.410;11.852;2023-05-31T08:57:21;5.68;;;3.90;;
42146;SDS011;27815;43.410;11.852;2023-05-31T09:01:28;5.35;;;3.60;;
42146;SDS011;27815;43.410;11.852;2023-05-31T09:05:32;6.13;;;3.67;;
42146;SDS011;27815;43.410;11.852;2023-05-31T09:09:36;5.72;;;3.42;;
42146;SDS011;27815;43.410;11.852;2023-05-31T09:13:40;6.35;;;3.80;;
42146;SDS011;27815;43.410;11.852;2023-05-31T09:17:46;6.47;;;3.70;;
42146;SDS011;27815;43.410;11.852;2023-05-31T09:21:49;5.22;;;3.28;;
42146;SDS011;27815;43.410;11.852;2023-05-31T09:25:55;5.93;;;3.80;;
42146;SDS011;27815;43.410;11.852;2023-05-31T09:29:58;5.80;;;4.00;;
42146;SDS011;27815;43.410;11.852;2023-05-31T09:34:06;5.20;;;3.20;;
42146;SDS011;27815;43.410;11.852;2023-05-31T09:38:33;5.32;;;3.60;;
42146;SDS011;27815;43.410;11.852;2023-05-31T09:42:37;6.00;;;4.25;;
42146;SDS011;27815;43.410;11.852;2023-05-31T09:46:40;7.07;;;3.70;;
42146;SDS011;27815;43.410;11.852;2023-05-31T09:50:44;5.32;;;3.65;;
42146;SDS011;27815;43.410;11.852;2023-05-31T09:54:48;5.60;;;3.55;;
42146;SDS011;27815;43.410;11.852;2023-05-31T09:58:54;5.40;;;3.80;;
42146;SDS011;27815;43.410;11.852;2023-05-31T10:02:58;5.43;;;3.58;;
42146;SDS011;27815;43.410;11.852;2023-05-31T10:07:02;5.03;;;3.30;;
42146;SDS011;27815;43.410;11.852;2023-05-31T10:11:07;5.87;;;3.37;;
42146;SDS011;27815;43.410;11.852;2023-05-31T10:15:16;5.50;;;3.50;;
42146;SDS011;27815;43.410;11.852;2023-05-31T10:19:34;7.95;;;3.75;;
42146;SDS011;27815;43.410;11.852;2023-05-31T10:23:57;6.13;;;3.40;;
42146;SDS011;27815;43.410;11.852;2023-05-31T10:28:07;5.43;;;3.58;;
42146;SDS011;27815;43.410;11.852;2023-05-31T10:32:16;6.05;;;3.72;;
42146;SDS011;27815;43.410;11.852;2023-05-31T10:36:30;5.22;;;3.35;;
42146;SDS011;27815;43.410;11.852;2023-05-31T10:40:47;5.17;;;3.23;;
42146;SDS011;27815;43.410;11.852;2023-05-31T10:49:14;6.53;;;3.78;;
42146;SDS011;27815;43.410;11.852;2023-05-31T10:53:20;7.23;;;4.27;;
42146;SDS011;27815;43.410;11.852;2023-05-31T10:57:23;8.30;;;5.10;;
42146;SDS011;27815;43.410;11.852;2023-05-31T11:01:32;6.13;;;3.90;;
42146;SDS011;27815;43.410;11.852;2023-05-31T11:05:38;6.65;;;3.78;;
42146;SDS011;27815;43.410;11.852;2023-05-31T11:09:58;5.50;;;3.40;;
42146;SDS011;27815;43.410;11.852;2023-05-31T11:14:03;7.30;;;3.50;;
42146;SDS011;27815;43.410;11.852;2023-05-31T11:18:45;6.72;;;3.78;;
42146;SDS011;27815;43.410;11.852;2023-05-31T11:22:43;7.85;;;4.05;;
42146;SDS011;27815;43.410;11.852;2023-05-31T11:26:53;5.93;;;4.10;;
42146;SDS011;27815;43.410;11.852;2023-05-31T11:30:58;7.05;;;4.50;;
42146;SDS011;27815;43.410;11.852;2023-05-31T11:35:02;5.88;;;3.50;;
42146;SDS011;27815;43.410;11.852;2023-05-31T11:39:06;8.07;;;3.83;;
42146;SDS011;27815;43.410;11.852;2023-05-31T11:43:09;6.68;;;3.97;;
42146;SDS011;27815;43.410;11.852;2023-05-31T11:51:36;5.18;;;3.35;;
42146;SDS011;27815;43.410;11.852;2023-05-31T11:55:44;6.72;;;3.83;;
42146;SDS011;27815;43.410;11.852;2023-05-31T11:59:50;6.60;;;3.88;;
42146;SDS011;27815;43.410;11.852;2023-05-31T12:03:59;5.82;;;3.55;;
42146;SDS011;27815;43.410;11.852;2023-05-31T12:08:03;6.95;;;3.70;;
42146;SDS011;27815;43.410;11.852;2023-05-31T12:12:09;6.78;;;3.95;;
42146;SDS011;27815;43.410;11.852;2023-05-31T12:16:14;6.63;;;3.75;;
42146;SDS011;27815;43.410;11.852;2023-05-31T12:20:17;7.63;;;3.88;;
42146;SDS011;27815;43.410;11.852;2023-05-31T12:24:23;5.77;;;3.57;;
42146;SDS011;27815;43.410;11.852;2023-05-31T12:28:29;6.67;;;3.37;;
42146;SDS011;27815;43.410;11.852;2023-05-31T12:32:31;6.50;;;3.60;;
42146;SDS011;27815;43.410;11.852;2023-05-31T12:36:38;5.60;;;3.38;;
42146;SDS011;27815;43.410;11.852;2023-05-31T12:40:45;6.80;;;3.38;;
42146;SDS011;27815;43.410;11.852;2023-05-31T12:44:49;8.60;;;3.88;;
42146;SDS011;27815;43.410;11.852;2023-05-31T12:48:52;6.38;;;3.33;;
42146;SDS011;27815;43.410;11.852;2023-05-31T12:52:55;5.75;;;3.28;;
42146;SDS011;27815;43.410;11.852;2023-05-31T12:57:00;5.38;;;2.95;;
42146;SDS011;27815;43.410;11.852;2023-05-31T13:01:04;5.28;;;3.05;;
42146;SDS011;27815;43.410;11.852;2023-05-31T13:05:08;4.68;;;2.90;;
42146;SDS011;27815;43.410;11.852;2023-05-31T13:09:11;4.97;;;2.83;;
42146;SDS011;27815;43.410;11.852;2023-05-31T13:13:14;5.45;;;2.90;;
42146;SDS011;27815;43.410;11.852;2023-05-31T13:17:17;6.97;;;2.85;;
42146;SDS011;27815;43.410;11.852;2023-05-31T13:21:21;4.00;;;2.50;;
42146;SDS011;27815;43.410;11.852;2023-05-31T13:25:24;4.40;;;2.47;;
42146;SDS011;27815;43.410;11.852;2023-05-31T13:29:27;4.10;;;2.33;;
42146;SDS011;27815;43.410;11.852;2023-05-31T13:33:30;5.97;;;2.80;;
42146;SDS011;27815;43.410;11.852;2023-05-31T13:37:34;3.83;;;2.47;;
42146;SDS011;27815;43.410;11.852;2023-05-31T13:41:37;5.20;;;2.83;;
42146;SDS011;27815;43.410;11.852;2023-05-31T13:45:40;5.55;;;2.33;;
42146;SDS011;27815;43.410;11.852;2023-05-31T13:49:43;4.75;;;2.63;;
42146;SDS011;27815;43.410;11.852;2023-05-31T13:53:46;4.50;;;2.42;;
42146;SDS011;27815;43.410;11.852;2023-05-31T13:57:49;4.90;;;2.65;;
42146;SDS011;27815;43.410;11.852;2023-05-31T14:01:52;4.57;;;2.90;;
42146;SDS011;27815;43.410;11.852;2023-05-31T14:05:55;5.72;;;2.70;;
42146;SDS011;27815;43.410;11.852;2023-05-31T14:09:59;5.18;;;2.60;;
42146;SDS011;27815;43.410;11.852;2023-05-31T14:14:02;4.93;;;2.70;;
42146;SDS011;27815;43.410;11.852;2023-05-31T14:18:07;5.60;;;2.95;;
42146;SDS011;27815;43.410;11.852;2023-05-31T14:22:10;5.45;;;2.90;;
42146;SDS011;27815;43.410;11.852;2023-05-31T14:26:13;6.40;;;2.47;;
42146;SDS011;27815;43.410;11.852;2023-05-31T14:30:17;5.45;;;2.47;;
42146;SDS011;27815;43.410;11.852;2023-05-31T14:34:20;5.80;;;2.42;;
42146;SDS011;27815;43.410;11.852;2023-05-31T14:38:23;5.57;;;2.30;;
42146;SDS011;27815;43.410;11.852;2023-05-31T14:42:36;4.85;;;2.55;;
42146;SDS011;27815;43.410;11.852;2023-05-31T14:46:39;4.18;;;2.38;;
42146;SDS011;27815;43.410;11.852;2023-05-31T14:50:43;5.88;;;2.80;;
42146;SDS011;27815;43.410;11.852;2023-05-31T14:54:48;6.07;;;2.53;;
42146;SDS011;27815;43.410;11.852;2023-05-31T14:58:51;4.68;;;2.10;;
42146;SDS011;27815;43.410;11.852;2023-05-31T15:02:54;3.78;;;2.30;;
42146;SDS011;27815;43.410;11.852;2023-05-31T15:06:57;5.75;;;2.75;;
42146;SDS011;27815;43.410;11.852;2023-05-31T15:11:03;5.93;;;2.40;;
42146;SDS011;27815;43.410;11.852;2023-05-31T15:15:06;5.38;;;2.60;;
42146;SDS011;27815;43.410;11.852;2023-05-31T15:19:10;3.85;;;2.30;;
42146;SDS011;27815;43.410;11.852;2023-05-31T15:23:20;5.22;;;2.30;;
42146;SDS011;27815;43.410;11.852;2023-05-31T15:27:24;3.78;;;2.25;;
42146;SDS011;27815;43.410;11.852;2023-05-31T15:31:39;4.85;;;2.30;;
42146;SDS011;27815;43.410;11.852;2023-05-31T15:36:03;3.90;;;2.00;;
42146;SDS011;27815;43.410;11.852;2023-05-31T15:40:32;5.30;;;2.20;;
42146;SDS011;27815;43.410;11.852;2023-05-31T15:45:15;3.95;;;2.28;;
42146;SDS011;27815;43.410;11.852;2023-05-31T15:49:18;4.40;;;2.55;;
42146;SDS011;27815;43.410;11.852;2023-05-31T15:53:21;4.75;;;2.15;;
42146;SDS011;27815;43.410;11.852;2023-05-31T15:57:25;4.63;;;2.10;;
42146;SDS011;27815;43.410;11.852;2023-05-31T16:01:35;3.17;;;1.80;;
42146;SDS011;27815;43.410;11.852;2023-05-31T16:10:50;3.25;;;1.63;;
42146;SDS011;27815;43.410;11.852;2023-05-31T16:14:54;3.72;;;2.05;;
42146;SDS011;27815;43.410;11.852;2023-05-31T16:19:10;3.78;;;1.77;;
42146;SDS011;27815;43.410;11.852;2023-05-31T16:23:20;3.20;;;1.80;;
42146;SDS011;27815;43.410;11.852;2023-05-31T16:27:25;3.47;;;1.88;;
42146;SDS011;27815;43.410;11.852;2023-05-31T16:31:36;4.10;;;2.13;;
42146;SDS011;27815;43.410;11.852;2023-05-31T16:36:39;7.07;;;2.38;;
42146;SDS011;27815;43.410;11.852;2023-05-31T16:40:49;3.92;;;1.70;;
42146;SDS011;27815;43.410;11.852;2023-05-31T16:44:53;5.00;;;1.90;;
42146;SDS011;27815;43.410;11.852;2023-05-31T16:50:32;5.35;;;2.25;;
42146;SDS011;27815;43.410;11.852;2023-05-31T16:56:02;3.42;;;2.10;;
42146;SDS011;27815;43.410;11.852;2023-05-31T17:16:50;4.35;;;2.50;;
42146;SDS011;27815;43.410;11.852;2023-05-31T17:21:38;3.72;;;2.63;;
42146;SDS011;27815;43.410;11.852;2023-05-31T17:26:27;3.83;;;2.40;;
42146;SDS011;27815;43.410;11.852;2023-05-31T17:30:47;5.97;;;3.10;;
42146;SDS011;27815;43.410;11.852;2023-05-31T17:35:18;5.03;;;3.20;;
42146;SDS011;27815;43.410;11.852;2023-05-31T17:39:22;5.05;;;3.75;;
42146;SDS011;27815;43.410;11.852;2023-05-31T17:43:42;4.93;;;4.32;;
42146;SDS011;27815;43.410;11.852;2023-05-31T17:47:46;5.43;;;4.55;;
42146;SDS011;27815;43.410;11.852;2023-05-31T17:51:57;6.38;;;4.88;;
42146;SDS011;27815;43.410;11.852;2023-05-31T17:56:03;5.13;;;4.63;;
42146;SDS011;27815;43.410;11.852;2023-05-31T18:00:07;5.93;;;4.47;;
42146;SDS011;27815;43.410;11.852;2023-05-31T18:04:10;6.28;;;4.97;;
42146;SDS011;27815;43.410;11.852;2023-05-31T18:08:22;7.90;;;5.03;;
42146;SDS011;27815;43.410;11.852;2023-05-31T18:22:08;9.15;;;5.20;;
42146;SDS011;27815;43.410;11.852;2023-05-31T18:26:19;5.93;;;5.03;;
42146;SDS011;27815;43.410;11.852;2023-05-31T18:30:24;7.95;;;5.10;;
42146;SDS011;27815;43.410;11.852;2023-05-31T18:34:29;5.18;;;4.07;;
42146;SDS011;27815;43.410;11.852;2023-05-31T18:38:45;5.47;;;3.60;;
42146;SDS011;27815;43.410;11.852;2023-05-31T18:43:28;3.95;;;2.97;;
42146;SDS011;27815;43.410;11.852;2023-05-31T18:47:31;4.88;;;3.40;;
42146;SDS011;27815;43.410;11.852;2023-05-31T18:56:44;4.75;;;3.33;;
42146;SDS011;27815;43.410;11.852;2023-05-31T19:10:24;6.75;;;3.58;;
42146;SDS011;27815;43.410;11.852;2023-05-31T19:14:27;7.68;;;3.85;;
42146;SDS011;27815;43.410;11.852;2023-05-31T19:23:31;7.22;;;4.32;;
42146;SDS011;27815;43.410;11.852;2023-05-31T19:32:19;7.32;;;3.72;;
42146;SDS011;27815;43.410;11.852;2023-05-31T19:51:18;4.72;;;2.90;;
42146;SDS011;27815;43.410;11.852;2023-05-31T20:10:29;8.13;;;3.38;;
42146;SDS011;27815;43.410;11.852;2023-05-31T20:14:32;7.25;;;3.92;;
42146;SDS011;27815;43.410;11.852;2023-05-31T20:18:35;5.40;;;3.28;;
42146;SDS011;27815;43.410;11.852;2023-05-31T20:22:38;5.63;;;3.72;;
42146;SDS011;27815;43.410;11.852;2023-05-31T20:26:41;5.18;;;3.55;;
42146;SDS011;27815;43.410;11.852;2023-05-31T20:36:12;4.45;;;3.30;;
42146;SDS011;27815;43.410;11.852;2023-05-31T20:40:19;6.75;;;3.95;;
42146;SDS011;27815;43.410;11.852;2023-05-31T20:44:42;7.18;;;4.32;;
42146;SDS011;27815;43.410;11.852;2023-05-31T20:48:51;4.97;;;3.35;;
42146;SDS011;27815;43.410;11.852;2023-05-31T20:53:08;6.00;;;3.95;;
42146;SDS011;27815;43.410;11.852;2023-05-31T20:57:12;5.60;;;4.03;;
42146;SDS011;27815;43.410;11.852;2023-05-31T21:01:20;5.50;;;3.58;;
42146;SDS011;27815;43.410;11.852;2023-05-31T21:05:23;4.78;;;3.35;;
42146;SDS011;27815;43.410;11.852;2023-05-31T21:09:26;5.93;;;3.75;;
42146;SDS011;27815;43.410;11.852;2023-05-31T21:13:30;6.60;;;3.97;;
42146;SDS011;27815;43.410;11.852;2023-05-31T21:17:33;5.85;;;4.15;;
42146;SDS011;27815;43.410;11.852;2023-05-31T21:21:37;7.18;;;4.53;;
42146;SDS011;27815;43.410;11.852;2023-05-31T21:25:50;7.75;;;4.45;;
42146;SDS011;27815;43.410;11.852;2023-05-31T21:29:56;6.87;;;4.33;;
42146;SDS011;27815;43.410;11.852;2023-05-31T21:34:03;5.57;;;3.92;;
42146;SDS011;27815;43.410;11.852;2023-05-31T21:38:08;5.72;;;3.70;;
42146;SDS011;27815;43.410;11.852;2023-05-31T21:42:11;5.40;;;3.40;;
42146;SDS011;27815;43.410;11.852;2023-05-31T21:46:14;6.30;;;3.92;;
42146;SDS011;27815;43.410;11.852;2023-05-31T21:50:17;7.45;;;4.00;;
42146;SDS011;27815;43.410;11.852;2023-05-31T21:54:23;7.22;;;4.32;;
42146;SDS011;27815;43.410;11.852;2023-05-31T21:58:26;6.95;;;3.92;;
42146;SDS011;27815;43.410;11.852;2023-05-31T22:02:37;6.93;;;3.83;;
42146;SDS011;27815;43.410;11.852;2023-05-31T22:06:45;5.97;;;3.20;;
42146;SDS011;27815;43.410;11.852;2023-05-31T22:10:51;5.95;;;3.42;;
42146;SDS011;27815;43.410;11.852;2023-05-31T22:15:38;5.90;;;3.63;;
42146;SDS011;27815;43.410;11.852;2023-05-31T22:19:50;3.95;;;3.10;;
42146;SDS011;27815;43.410;11.852;2023-05-31T22:24:13;6.35;;;3.42;;
42146;SDS011;27815;43.410;11.852;2023-05-31T22:28:59;4.95;;;3.42;;
42146;SDS011;27815;43.410;11.852;2023-05-31T22:33:10;7.85;;;4.68;;
42146;SDS011;27815;43.410;11.852;2023-05-31T22:37:41;5.70;;;4.28;;
42146;SDS011;27815;43.410;11.852;2023-05-31T22:42:03;5.72;;;4.70;;
42146;SDS011;27815;43.410;11.852;2023-05-31T22:47:10;5.60;;;4.18;;
42146;SDS011;27815;43.410;11.852;2023-05-31T22:51:53;5.25;;;3.53;;
42146;SDS011;27815;43.410;11.852;2023-05-31T22:57:16;5.60;;;3.80;;
42146;SDS011;27815;43.410;11.852;2023-05-31T23:01:59;4.82;;;3.53;;
42146;SDS011;27815;43.410;11.852;2023-05-31T23:06:31;5.15;;;3.67;;
42146;SDS011;27815;43.410;11.852;2023-05-31T23:11:00;6.03;;;3.97;;
42146;SDS011;27815;43.410;11.852;2023-05-31T23:20:32;5.03;;;3.57;;
42146;SDS011;27815;43.410;11.852;2023-05-31T23:24:56;4.72;;;3.63;;
42146;SDS011;27815;43.410;11.852;2023-05-31T23:29:10;5.60;;;4.03;;
42146;SDS011;27815;43.410;11.852;2023-05-31T23:33:18;4.65;;;3.65;;
42146;SDS011;27815;43.410;11.852;2023-05-31T23:37:22;5.50;;;3.83;;
42146;SDS011;27815;43.410;11.852;2023-05-31T23:41:53;5.72;;;4.13;;
42146;SDS011;27815;43.410;11.852;2023-05-31T23:50:31;4.38;;;2.92;;
42146;SDS011;27815;43.410;11.852;2023-05-31T23:54:36;4.25;;;3.13;;
42146;SDS011;27815;43.410;11.852;2023-05-31T23:58:39;4.95;;;3.88;;
